sensor_id;sensor_type;location;lat;lon;timestamp;P1;durP1;ratioP1;P2;durP2;ratioP2
15936;SDS011;9163;48.818;8.976;2023-07-08T00:00:18;11.53;;;6.23;;
15936;SDS011;9163;48.818;8.976;2023-07-08T00:02:47;9.10;;;6.00;;
15936;SDS011;9163;48.818;8.976;2023-07-08T00:05:16;9.73;;;6.10;;
15936;SDS011;9163;48.818;8.976;2023-07-08T00:07:44;8.00;;;5.90;;
15936;SDS011;9163;48.818;8.976;2023-07-08T00:10:15;9.87;;;6.27;;
15936;SDS011;9163;48.818;8.976;2023-07-08T00:12:45;9.20;;;6.50;;
15936;SDS011;9163;48.818;8.976;2023-07-08T00:15:15;10.23;;;6.27;;
15936;SDS011;9163;48.818;8.976;2023-07-08T00:17:43;10.03;;;6.07;;
15936;SDS011;9163;48.818;8.976;2023-07-08T00:20:11;8.70;;;6.17;;
15936;SDS011;9163;48.818;8.976;2023-07-08T00:22:40;8.47;;;5.73;;
15936;SDS011;9163;48.818;8.976;2023-07-08T00:25:08;10.10;;;6.27;;
15936;SDS011;9163;48.818;8.976;2023-07-08T00:27:37;9.20;;;6.17;;
15936;SDS011;9163;48.818;8.976;2023-07-08T00:30:10;9.30;;;6.30;;
15936;SDS011;9163;48.818;8.976;2023-07-08T00:32:46;8.07;;;5.90;;
15936;SDS011;9163;48.818;8.976;2023-07-08T00:35:20;9.53;;;6.50;;
15936;SDS011;9163;48.818;8.976;2023-07-08T00:37:49;11.57;;;6.50;;
15936;SDS011;9163;48.818;8.976;2023-07-08T00:40:19;10.33;;;6.40;;
15936;SDS011;9163;48.818;8.976;2023-07-08T00:42:48;10.30;;;6.03;;
15936;SDS011;9163;48.818;8.976;2023-07-08T00:45:18;8.37;;;5.93;;
15936;SDS011;9163;48.818;8.976;2023-07-08T00:47:53;9.07;;;6.30;;
15936;SDS011;9163;48.818;8.976;2023-07-08T00:50:22;10.47;;;6.30;;
15936;SDS011;9163;48.818;8.976;2023-07-08T00:52:50;9.10;;;6.10;;
15936;SDS011;9163;48.818;8.976;2023-07-08T00:55:39;10.90;;;6.10;;
15936;SDS011;9163;48.818;8.976;2023-07-08T00:58:07;12.63;;;6.57;;
15936;SDS011;9163;48.818;8.976;2023-07-08T01:00:34;9.67;;;6.07;;
15936;SDS011;9163;48.818;8.976;2023-07-08T01:03:02;10.07;;;6.13;;
15936;SDS011;9163;48.818;8.976;2023-07-08T01:05:30;8.73;;;5.93;;
15936;SDS011;9163;48.818;8.976;2023-07-08T01:08:02;10.20;;;6.10;;
15936;SDS011;9163;48.818;8.976;2023-07-08T01:10:32;10.37;;;6.20;;
15936;SDS011;9163;48.818;8.976;2023-07-08T01:13:04;8.97;;;5.97;;
15936;SDS011;9163;48.818;8.976;2023-07-08T01:15:38;10.37;;;6.37;;
15936;SDS011;9163;48.818;8.976;2023-07-08T01:18:08;10.17;;;5.97;;
15936;SDS011;9163;48.818;8.976;2023-07-08T01:20:39;10.27;;;6.43;;
15936;SDS011;9163;48.818;8.976;2023-07-08T01:23:07;9.70;;;6.10;;
15936;SDS011;9163;48.818;8.976;2023-07-08T01:25:36;11.30;;;6.67;;
15936;SDS011;9163;48.818;8.976;2023-07-08T01:28:04;8.63;;;5.80;;
15936;SDS011;9163;48.818;8.976;2023-07-08T01:30:31;9.30;;;6.33;;
15936;SDS011;9163;48.818;8.976;2023-07-08T01:32:59;9.70;;;6.50;;
15936;SDS011;9163;48.818;8.976;2023-07-08T01:35:31;10.67;;;6.53;;
15936;SDS011;9163;48.818;8.976;2023-07-08T01:37:59;11.43;;;6.03;;
15936;SDS011;9163;48.818;8.976;2023-07-08T01:40:30;10.67;;;6.27;;
15936;SDS011;9163;48.818;8.976;2023-07-08T01:42:58;8.97;;;6.13;;
15936;SDS011;9163;48.818;8.976;2023-07-08T01:45:27;8.83;;;5.87;;
15936;SDS011;9163;48.818;8.976;2023-07-08T01:47:58;10.93;;;6.47;;
15936;SDS011;9163;48.818;8.976;2023-07-08T01:50:28;10.77;;;6.20;;
15936;SDS011;9163;48.818;8.976;2023-07-08T01:52:58;10.80;;;6.30;;
15936;SDS011;9163;48.818;8.976;2023-07-08T01:55:29;11.47;;;6.63;;
15936;SDS011;9163;48.818;8.976;2023-07-08T01:57:57;8.20;;;5.63;;
15936;SDS011;9163;48.818;8.976;2023-07-08T02:00:24;8.97;;;6.03;;
15936;SDS011;9163;48.818;8.976;2023-07-08T02:02:52;10.23;;;6.47;;
15936;SDS011;9163;48.818;8.976;2023-07-08T02:05:19;11.07;;;6.20;;
15936;SDS011;9163;48.818;8.976;2023-07-08T02:07:46;10.50;;;6.87;;
15936;SDS011;9163;48.818;8.976;2023-07-08T02:10:13;10.47;;;6.33;;
15936;SDS011;9163;48.818;8.976;2023-07-08T02:12:42;10.43;;;6.20;;
15936;SDS011;9163;48.818;8.976;2023-07-08T02:15:10;10.70;;;6.40;;
15936;SDS011;9163;48.818;8.976;2023-07-08T02:17:37;9.30;;;5.93;;
15936;SDS011;9163;48.818;8.976;2023-07-08T02:20:05;9.73;;;6.87;;
15936;SDS011;9163;48.818;8.976;2023-07-08T02:22:33;10.77;;;6.43;;
15936;SDS011;9163;48.818;8.976;2023-07-08T02:25:02;11.10;;;6.27;;
15936;SDS011;9163;48.818;8.976;2023-07-08T02:27:30;12.50;;;6.50;;
15936;SDS011;9163;48.818;8.976;2023-07-08T02:29:59;10.07;;;6.10;;
15936;SDS011;9163;48.818;8.976;2023-07-08T02:32:27;8.57;;;6.10;;
15936;SDS011;9163;48.818;8.976;2023-07-08T02:34:54;9.47;;;6.30;;
15936;SDS011;9163;48.818;8.976;2023-07-08T02:37:22;11.30;;;6.67;;
15936;SDS011;9163;48.818;8.976;2023-07-08T02:39:49;8.83;;;6.23;;
15936;SDS011;9163;48.818;8.976;2023-07-08T02:42:16;10.17;;;6.70;;
15936;SDS011;9163;48.818;8.976;2023-07-08T02:44:43;11.27;;;6.40;;
15936;SDS011;9163;48.818;8.976;2023-07-08T02:47:12;9.03;;;6.23;;
15936;SDS011;9163;48.818;8.976;2023-07-08T02:49:39;8.60;;;6.00;;
15936;SDS011;9163;48.818;8.976;2023-07-08T02:52:06;9.90;;;6.17;;
15936;SDS011;9163;48.818;8.976;2023-07-08T02:54:34;9.10;;;6.40;;
15936;SDS011;9163;48.818;8.976;2023-07-08T02:57:01;8.60;;;5.90;;
15936;SDS011;9163;48.818;8.976;2023-07-08T02:59:28;9.93;;;5.77;;
15936;SDS011;9163;48.818;8.976;2023-07-08T03:01:56;9.27;;;6.33;;
15936;SDS011;9163;48.818;8.976;2023-07-08T03:04:24;11.93;;;6.63;;
15936;SDS011;9163;48.818;8.976;2023-07-08T03:06:51;10.60;;;6.70;;
15936;SDS011;9163;48.818;8.976;2023-07-08T03:09:19;11.00;;;6.57;;
15936;SDS011;9163;48.818;8.976;2023-07-08T03:11:46;9.00;;;6.27;;
15936;SDS011;9163;48.818;8.976;2023-07-08T03:14:14;10.23;;;6.57;;
15936;SDS011;9163;48.818;8.976;2023-07-08T03:16:41;10.17;;;6.73;;
15936;SDS011;9163;48.818;8.976;2023-07-08T03:19:09;10.40;;;6.20;;
15936;SDS011;9163;48.818;8.976;2023-07-08T03:21:41;11.20;;;6.27;;
15936;SDS011;9163;48.818;8.976;2023-07-08T03:24:09;8.23;;;6.00;;
15936;SDS011;9163;48.818;8.976;2023-07-08T03:26:37;10.63;;;6.80;;
15936;SDS011;9163;48.818;8.976;2023-07-08T03:29:05;11.30;;;6.63;;
15936;SDS011;9163;48.818;8.976;2023-07-08T03:31:32;10.63;;;6.00;;
15936;SDS011;9163;48.818;8.976;2023-07-08T03:33:59;10.47;;;6.40;;
15936;SDS011;9163;48.818;8.976;2023-07-08T03:36:27;9.00;;;5.90;;
15936;SDS011;9163;48.818;8.976;2023-07-08T03:38:56;9.70;;;6.63;;
15936;SDS011;9163;48.818;8.976;2023-07-08T03:41:24;11.30;;;6.33;;
15936;SDS011;9163;48.818;8.976;2023-07-08T03:43:52;12.57;;;6.50;;
15936;SDS011;9163;48.818;8.976;2023-07-08T03:46:19;10.77;;;6.40;;
15936;SDS011;9163;48.818;8.976;2023-07-08T03:48:48;11.47;;;6.50;;
15936;SDS011;9163;48.818;8.976;2023-07-08T03:51:17;9.30;;;5.93;;
15936;SDS011;9163;48.818;8.976;2023-07-08T03:53:48;11.57;;;6.57;;
15936;SDS011;9163;48.818;8.976;2023-07-08T03:56:16;10.80;;;6.17;;
15936;SDS011;9163;48.818;8.976;2023-07-08T03:58:44;10.10;;;5.93;;
15936;SDS011;9163;48.818;8.976;2023-07-08T04:01:13;10.53;;;6.27;;
15936;SDS011;9163;48.818;8.976;2023-07-08T04:03:42;11.07;;;6.07;;
15936;SDS011;9163;48.818;8.976;2023-07-08T04:06:10;9.97;;;6.20;;
15936;SDS011;9163;48.818;8.976;2023-07-08T04:08:37;10.43;;;6.40;;
15936;SDS011;9163;48.818;8.976;2023-07-08T04:11:04;9.00;;;6.10;;
15936;SDS011;9163;48.818;8.976;2023-07-08T04:13:33;8.00;;;5.97;;
15936;SDS011;9163;48.818;8.976;2023-07-08T04:16:01;8.57;;;5.93;;
15936;SDS011;9163;48.818;8.976;2023-07-08T04:18:30;10.57;;;6.43;;
15936;SDS011;9163;48.818;8.976;2023-07-08T04:20:58;11.80;;;6.13;;
15936;SDS011;9163;48.818;8.976;2023-07-08T04:23:25;9.03;;;5.77;;
15936;SDS011;9163;48.818;8.976;2023-07-08T04:25:53;8.17;;;5.97;;
15936;SDS011;9163;48.818;8.976;2023-07-08T04:28:22;11.90;;;6.40;;
15936;SDS011;9163;48.818;8.976;2023-07-08T04:30:51;9.27;;;6.07;;
15936;SDS011;9163;48.818;8.976;2023-07-08T04:33:18;9.60;;;5.83;;
15936;SDS011;9163;48.818;8.976;2023-07-08T04:35:46;8.93;;;6.07;;
15936;SDS011;9163;48.818;8.976;2023-07-08T04:38:14;11.53;;;6.63;;
15936;SDS011;9163;48.818;8.976;2023-07-08T04:40:44;10.70;;;6.30;;
15936;SDS011;9163;48.818;8.976;2023-07-08T04:43:11;11.10;;;6.13;;
15936;SDS011;9163;48.818;8.976;2023-07-08T04:45:40;8.83;;;5.80;;
15936;SDS011;9163;48.818;8.976;2023-07-08T04:48:12;9.13;;;6.43;;
15936;SDS011;9163;48.818;8.976;2023-07-08T04:50:41;10.13;;;6.57;;
15936;SDS011;9163;48.818;8.976;2023-07-08T04:53:09;9.83;;;6.47;;
15936;SDS011;9163;48.818;8.976;2023-07-08T04:55:37;10.87;;;6.37;;
15936;SDS011;9163;48.818;8.976;2023-07-08T04:58:07;11.13;;;6.20;;
15936;SDS011;9163;48.818;8.976;2023-07-08T05:00:34;11.27;;;6.53;;
15936;SDS011;9163;48.818;8.976;2023-07-08T05:03:02;10.00;;;6.00;;
15936;SDS011;9163;48.818;8.976;2023-07-08T05:05:30;8.37;;;5.93;;
15936;SDS011;9163;48.818;8.976;2023-07-08T05:07:57;8.57;;;5.83;;
15936;SDS011;9163;48.818;8.976;2023-07-08T05:10:25;11.90;;;6.67;;
15936;SDS011;9163;48.818;8.976;2023-07-08T05:12:52;11.17;;;6.50;;
15936;SDS011;9163;48.818;8.976;2023-07-08T05:15:20;11.27;;;6.43;;
15936;SDS011;9163;48.818;8.976;2023-07-08T05:17:47;10.77;;;6.23;;
15936;SDS011;9163;48.818;8.976;2023-07-08T05:20:16;9.10;;;6.10;;
15936;SDS011;9163;48.818;8.976;2023-07-08T05:22:46;9.07;;;5.70;;
15936;SDS011;9163;48.818;8.976;2023-07-08T05:25:13;10.33;;;6.27;;
15936;SDS011;9163;48.818;8.976;2023-07-08T05:27:42;10.57;;;6.90;;
15936;SDS011;9163;48.818;8.976;2023-07-08T05:30:16;11.43;;;6.63;;
15936;SDS011;9163;48.818;8.976;2023-07-08T05:32:45;10.23;;;6.47;;
15936;SDS011;9163;48.818;8.976;2023-07-08T05:35:12;11.33;;;6.43;;
15936;SDS011;9163;48.818;8.976;2023-07-08T05:37:40;10.07;;;6.27;;
15936;SDS011;9163;48.818;8.976;2023-07-08T05:40:11;10.47;;;6.13;;
15936;SDS011;9163;48.818;8.976;2023-07-08T05:42:39;11.73;;;6.37;;
15936;SDS011;9163;48.818;8.976;2023-07-08T05:45:07;12.70;;;6.40;;
15936;SDS011;9163;48.818;8.976;2023-07-08T05:47:35;9.03;;;6.33;;
15936;SDS011;9163;48.818;8.976;2023-07-08T05:50:03;11.00;;;6.83;;
15936;SDS011;9163;48.818;8.976;2023-07-08T05:52:31;11.43;;;6.53;;
15936;SDS011;9163;48.818;8.976;2023-07-08T05:54:58;10.73;;;6.37;;
15936;SDS011;9163;48.818;8.976;2023-07-08T05:57:26;10.97;;;6.00;;
15936;SDS011;9163;48.818;8.976;2023-07-08T05:59:54;11.23;;;6.40;;
15936;SDS011;9163;48.818;8.976;2023-07-08T06:02:21;8.37;;;6.07;;
15936;SDS011;9163;48.818;8.976;2023-07-08T06:04:48;12.70;;;7.10;;
15936;SDS011;9163;48.818;8.976;2023-07-08T06:07:16;11.17;;;5.90;;
15936;SDS011;9163;48.818;8.976;2023-07-08T06:09:43;9.80;;;6.07;;
15936;SDS011;9163;48.818;8.976;2023-07-08T06:12:11;9.10;;;6.00;;
15936;SDS011;9163;48.818;8.976;2023-07-08T06:14:39;9.70;;;5.80;;
15936;SDS011;9163;48.818;8.976;2023-07-08T06:17:07;11.43;;;5.70;;
15936;SDS011;9163;48.818;8.976;2023-07-08T06:19:34;8.07;;;5.40;;
15936;SDS011;9163;48.818;8.976;2023-07-08T06:22:01;11.10;;;5.80;;
15936;SDS011;9163;48.818;8.976;2023-07-08T06:24:29;9.53;;;5.33;;
15936;SDS011;9163;48.818;8.976;2023-07-08T06:26:56;9.13;;;6.23;;
15936;SDS011;9163;48.818;8.976;2023-07-08T06:29:24;9.00;;;5.30;;
15936;SDS011;9163;48.818;8.976;2023-07-08T06:31:53;9.63;;;4.88;;
15936;SDS011;9163;48.818;8.976;2023-07-08T06:34:20;9.03;;;5.13;;
15936;SDS011;9163;48.818;8.976;2023-07-08T06:36:49;8.30;;;4.80;;
15936;SDS011;9163;48.818;8.976;2023-07-08T06:39:17;7.72;;;4.47;;
15936;SDS011;9163;48.818;8.976;2023-07-08T06:41:44;6.40;;;4.43;;
15936;SDS011;9163;48.818;8.976;2023-07-08T06:44:12;8.52;;;4.40;;
15936;SDS011;9163;48.818;8.976;2023-07-08T06:46:39;5.05;;;3.50;;
15936;SDS011;9163;48.818;8.976;2023-07-08T06:49:08;7.03;;;3.53;;
15936;SDS011;9163;48.818;8.976;2023-07-08T06:51:37;6.18;;;3.45;;
15936;SDS011;9163;48.818;8.976;2023-07-08T06:54:04;6.50;;;3.40;;
15936;SDS011;9163;48.818;8.976;2023-07-08T06:56:37;5.93;;;3.20;;
15936;SDS011;9163;48.818;8.976;2023-07-08T06:59:05;5.13;;;3.38;;
15936;SDS011;9163;48.818;8.976;2023-07-08T07:01:32;6.07;;;3.40;;
15936;SDS011;9163;48.818;8.976;2023-07-08T07:03:59;6.22;;;2.97;;
15936;SDS011;9163;48.818;8.976;2023-07-08T07:06:28;5.45;;;3.10;;
15936;SDS011;9163;48.818;8.976;2023-07-08T07:08:55;4.40;;;3.15;;
15936;SDS011;9163;48.818;8.976;2023-07-08T07:11:23;4.57;;;3.00;;
15936;SDS011;9163;48.818;8.976;2023-07-08T07:13:50;6.47;;;3.47;;
15936;SDS011;9163;48.818;8.976;2023-07-08T07:16:17;4.65;;;2.92;;
15936;SDS011;9163;48.818;8.976;2023-07-08T07:18:44;4.85;;;3.05;;
15936;SDS011;9163;48.818;8.976;2023-07-08T07:21:12;5.25;;;3.10;;
15936;SDS011;9163;48.818;8.976;2023-07-08T07:23:40;5.53;;;3.28;;
15936;SDS011;9163;48.818;8.976;2023-07-08T07:26:07;4.75;;;2.97;;
15936;SDS011;9163;48.818;8.976;2023-07-08T07:28:35;5.18;;;3.15;;
15936;SDS011;9163;48.818;8.976;2023-07-08T07:31:02;4.45;;;2.80;;
15936;SDS011;9163;48.818;8.976;2023-07-08T07:33:31;4.53;;;3.00;;
15936;SDS011;9163;48.818;8.976;2023-07-08T07:35:58;6.20;;;3.15;;
15936;SDS011;9163;48.818;8.976;2023-07-08T07:38:25;7.65;;;3.28;;
15936;SDS011;9163;48.818;8.976;2023-07-08T07:40:55;5.85;;;3.85;;
15936;SDS011;9163;48.818;8.976;2023-07-08T07:43:25;3.97;;;2.42;;
15936;SDS011;9163;48.818;8.976;2023-07-08T07:45:53;7.10;;;3.08;;
15936;SDS011;9163;48.818;8.976;2023-07-08T07:48:20;5.30;;;2.70;;
15936;SDS011;9163;48.818;8.976;2023-07-08T07:50:49;5.97;;;2.85;;
15936;SDS011;9163;48.818;8.976;2023-07-08T07:53:17;4.68;;;2.67;;
15936;SDS011;9163;48.818;8.976;2023-07-08T07:55:45;6.28;;;2.88;;
15936;SDS011;9163;48.818;8.976;2023-07-08T07:58:13;5.03;;;2.75;;
15936;SDS011;9163;48.818;8.976;2023-07-08T08:00:40;5.88;;;2.78;;
15936;SDS011;9163;48.818;8.976;2023-07-08T08:03:08;4.57;;;2.95;;
15936;SDS011;9163;48.818;8.976;2023-07-08T08:05:35;5.40;;;2.97;;
15936;SDS011;9163;48.818;8.976;2023-07-08T08:08:02;5.45;;;3.10;;
15936;SDS011;9163;48.818;8.976;2023-07-08T08:10:30;8.35;;;4.22;;
15936;SDS011;9163;48.818;8.976;2023-07-08T08:12:58;9.07;;;4.82;;
15936;SDS011;9163;48.818;8.976;2023-07-08T08:15:26;9.23;;;4.75;;
15936;SDS011;9163;48.818;8.976;2023-07-08T08:17:54;6.15;;;3.80;;
15936;SDS011;9163;48.818;8.976;2023-07-08T08:20:23;3.15;;;2.13;;
15936;SDS011;9163;48.818;8.976;2023-07-08T08:22:51;3.90;;;2.17;;
15936;SDS011;9163;48.818;8.976;2023-07-08T08:25:19;3.42;;;2.28;;
15936;SDS011;9163;48.818;8.976;2023-07-08T08:27:48;3.85;;;2.22;;
15936;SDS011;9163;48.818;8.976;2023-07-08T08:30:15;4.80;;;2.67;;
15936;SDS011;9163;48.818;8.976;2023-07-08T08:32:44;3.20;;;2.30;;
15936;SDS011;9163;48.818;8.976;2023-07-08T08:35:11;4.50;;;2.58;;
15936;SDS011;9163;48.818;8.976;2023-07-08T08:37:39;2.50;;;1.90;;
15936;SDS011;9163;48.818;8.976;2023-07-08T08:40:07;3.28;;;1.90;;
15936;SDS011;9163;48.818;8.976;2023-07-08T08:42:40;2.97;;;2.08;;
15936;SDS011;9163;48.818;8.976;2023-07-08T08:45:10;4.20;;;2.20;;
15936;SDS011;9163;48.818;8.976;2023-07-08T08:47:41;5.50;;;2.42;;
15936;SDS011;9163;48.818;8.976;2023-07-08T08:50:19;4.07;;;1.80;;
15936;SDS011;9163;48.818;8.976;2023-07-08T08:52:53;2.95;;;1.45;;
15936;SDS011;9163;48.818;8.976;2023-07-08T08:55:22;3.08;;;1.60;;
15936;SDS011;9163;48.818;8.976;2023-07-08T08:57:52;3.03;;;1.80;;
15936;SDS011;9163;48.818;8.976;2023-07-08T09:00:25;2.05;;;1.30;;
15936;SDS011;9163;48.818;8.976;2023-07-08T09:02:59;2.40;;;1.60;;
15936;SDS011;9163;48.818;8.976;2023-07-08T09:05:32;2.58;;;1.55;;
15936;SDS011;9163;48.818;8.976;2023-07-08T09:08:01;2.97;;;1.60;;
15936;SDS011;9163;48.818;8.976;2023-07-08T09:10:35;3.13;;;1.90;;
15936;SDS011;9163;48.818;8.976;2023-07-08T09:13:11;3.85;;;1.75;;
15936;SDS011;9163;48.818;8.976;2023-07-08T09:15:46;3.15;;;1.70;;
15936;SDS011;9163;48.818;8.976;2023-07-08T09:18:17;2.25;;;1.60;;
15936;SDS011;9163;48.818;8.976;2023-07-08T09:20:51;3.50;;;2.05;;
15936;SDS011;9163;48.818;8.976;2023-07-08T09:23:23;4.95;;;2.00;;
15936;SDS011;9163;48.818;8.976;2023-07-08T09:25:56;2.83;;;1.60;;
15936;SDS011;9163;48.818;8.976;2023-07-08T09:28:35;3.33;;;1.85;;
15936;SDS011;9163;48.818;8.976;2023-07-08T09:31:03;2.72;;;1.50;;
15936;SDS011;9163;48.818;8.976;2023-07-08T09:33:33;7.85;;;1.90;;
15936;SDS011;9163;48.818;8.976;2023-07-08T09:36:08;3.13;;;1.90;;
15936;SDS011;9163;48.818;8.976;2023-07-08T09:38:46;3.80;;;2.00;;
15936;SDS011;9163;48.818;8.976;2023-07-08T09:41:14;3.35;;;1.98;;
15936;SDS011;9163;48.818;8.976;2023-07-08T09:44:02;3.67;;;1.90;;
15936;SDS011;9163;48.818;8.976;2023-07-08T09:46:35;4.05;;;2.20;;
15936;SDS011;9163;48.818;8.976;2023-07-08T09:49:08;3.55;;;2.00;;
15936;SDS011;9163;48.818;8.976;2023-07-08T09:51:43;3.30;;;1.95;;
15936;SDS011;9163;48.818;8.976;2023-07-08T09:54:10;5.28;;;2.10;;
15936;SDS011;9163;48.818;8.976;2023-07-08T09:56:40;4.45;;;1.90;;
15936;SDS011;9163;48.818;8.976;2023-07-08T09:59:11;4.15;;;2.00;;
15936;SDS011;9163;48.818;8.976;2023-07-08T10:01:41;4.32;;;2.10;;
15936;SDS011;9163;48.818;8.976;2023-07-08T10:04:09;3.65;;;2.20;;
15936;SDS011;9163;48.818;8.976;2023-07-08T10:06:38;4.70;;;2.35;;
15936;SDS011;9163;48.818;8.976;2023-07-08T10:09:09;4.38;;;2.10;;
15936;SDS011;9163;48.818;8.976;2023-07-08T10:11:45;4.82;;;2.70;;
15936;SDS011;9163;48.818;8.976;2023-07-08T10:14:19;5.63;;;2.40;;
15936;SDS011;9163;48.818;8.976;2023-07-08T10:16:50;4.35;;;2.42;;
15936;SDS011;9163;48.818;8.976;2023-07-08T10:19:18;3.50;;;2.67;;
15936;SDS011;9163;48.818;8.976;2023-07-08T10:21:48;3.78;;;2.22;;
15936;SDS011;9163;48.818;8.976;2023-07-08T10:24:34;4.10;;;2.20;;
15936;SDS011;9163;48.818;8.976;2023-07-08T10:27:19;4.20;;;2.35;;
15936;SDS011;9163;48.818;8.976;2023-07-08T10:29:53;3.70;;;2.30;;
15936;SDS011;9163;48.818;8.976;2023-07-08T10:32:28;4.20;;;2.17;;
15936;SDS011;9163;48.818;8.976;2023-07-08T10:35:10;3.70;;;2.10;;
15936;SDS011;9163;48.818;8.976;2023-07-08T10:37:47;3.08;;;2.10;;
15936;SDS011;9163;48.818;8.976;2023-07-08T10:40:31;4.60;;;2.13;;
15936;SDS011;9163;48.818;8.976;2023-07-08T10:43:09;3.80;;;2.28;;
15936;SDS011;9163;48.818;8.976;2023-07-08T10:45:46;5.40;;;1.85;;
15936;SDS011;9163;48.818;8.976;2023-07-08T10:48:25;2.47;;;1.92;;
15936;SDS011;9163;48.818;8.976;2023-07-08T10:51:07;3.85;;;2.05;;
15936;SDS011;9163;48.818;8.976;2023-07-08T10:53:55;3.28;;;2.20;;
15936;SDS011;9163;48.818;8.976;2023-07-08T10:56:45;4.25;;;2.05;;
15936;SDS011;9163;48.818;8.976;2023-07-08T10:59:23;3.95;;;2.30;;
15936;SDS011;9163;48.818;8.976;2023-07-08T11:02:15;3.88;;;2.03;;
15936;SDS011;9163;48.818;8.976;2023-07-08T11:04:58;3.70;;;2.17;;
15936;SDS011;9163;48.818;8.976;2023-07-08T11:07:39;2.35;;;1.90;;
15936;SDS011;9163;48.818;8.976;2023-07-08T11:10:13;2.33;;;1.75;;
15936;SDS011;9163;48.818;8.976;2023-07-08T11:12:46;4.78;;;2.20;;
15936;SDS011;9163;48.818;8.976;2023-07-08T11:15:17;3.45;;;2.03;;
15936;SDS011;9163;48.818;8.976;2023-07-08T11:17:52;2.90;;;1.92;;
15936;SDS011;9163;48.818;8.976;2023-07-08T11:20:25;4.32;;;2.10;;
15936;SDS011;9163;48.818;8.976;2023-07-08T11:22:59;3.67;;;2.28;;
15936;SDS011;9163;48.818;8.976;2023-07-08T11:25:31;2.22;;;2.03;;
15936;SDS011;9163;48.818;8.976;2023-07-08T11:28:02;3.92;;;2.10;;
15936;SDS011;9163;48.818;8.976;2023-07-08T11:30:32;3.85;;;1.80;;
15936;SDS011;9163;48.818;8.976;2023-07-08T11:33:05;3.45;;;2.08;;
15936;SDS011;9163;48.818;8.976;2023-07-08T11:35:37;3.75;;;1.90;;
15936;SDS011;9163;48.818;8.976;2023-07-08T11:41:15;3.08;;;2.13;;
15936;SDS011;9163;48.818;8.976;2023-07-08T11:43:47;3.03;;;1.90;;
15936;SDS011;9163;48.818;8.976;2023-07-08T11:46:18;5.75;;;1.90;;
15936;SDS011;9163;48.818;8.976;2023-07-08T11:48:47;3.75;;;1.80;;
15936;SDS011;9163;48.818;8.976;2023-07-08T11:51:17;5.05;;;1.80;;
15936;SDS011;9163;48.818;8.976;2023-07-08T11:53:47;3.00;;;1.92;;
15936;SDS011;9163;48.818;8.976;2023-07-08T11:56:20;3.30;;;2.10;;
15936;SDS011;9163;48.818;8.976;2023-07-08T11:58:52;2.63;;;2.00;;
15936;SDS011;9163;48.818;8.976;2023-07-08T12:01:32;3.55;;;2.10;;
15936;SDS011;9163;48.818;8.976;2023-07-08T12:09:49;4.22;;;1.98;;
15936;SDS011;9163;48.818;8.976;2023-07-08T12:12:28;4.43;;;2.60;;
15936;SDS011;9163;48.818;8.976;2023-07-08T12:15:04;5.60;;;2.90;;
15936;SDS011;9163;48.818;8.976;2023-07-08T12:17:37;4.63;;;3.10;;
15936;SDS011;9163;48.818;8.976;2023-07-08T12:20:09;5.18;;;3.13;;
15936;SDS011;9163;48.818;8.976;2023-07-08T12:22:43;5.57;;;3.22;;
15936;SDS011;9163;48.818;8.976;2023-07-08T12:25:12;3.47;;;3.05;;
15936;SDS011;9163;48.818;8.976;2023-07-08T12:27:41;5.40;;;3.28;;
15936;SDS011;9163;48.818;8.976;2023-07-08T12:30:11;3.92;;;2.95;;
15936;SDS011;9163;48.818;8.976;2023-07-08T12:32:39;5.00;;;3.17;;
15936;SDS011;9163;48.818;8.976;2023-07-08T12:35:08;5.43;;;3.35;;
15936;SDS011;9163;48.818;8.976;2023-07-08T12:37:46;4.50;;;3.28;;
15936;SDS011;9163;48.818;8.976;2023-07-08T12:40:13;4.18;;;3.00;;
15936;SDS011;9163;48.818;8.976;2023-07-08T12:42:41;5.30;;;3.00;;
15936;SDS011;9163;48.818;8.976;2023-07-08T12:45:13;3.92;;;2.80;;
15936;SDS011;9163;48.818;8.976;2023-07-08T12:47:42;6.13;;;3.00;;
15936;SDS011;9163;48.818;8.976;2023-07-08T12:50:10;3.97;;;2.90;;
15936;SDS011;9163;48.818;8.976;2023-07-08T12:52:37;4.35;;;2.45;;
15936;SDS011;9163;48.818;8.976;2023-07-08T12:55:07;3.80;;;2.58;;
15936;SDS011;9163;48.818;8.976;2023-07-08T12:57:36;3.58;;;2.55;;
15936;SDS011;9163;48.818;8.976;2023-07-08T13:00:04;3.75;;;2.83;;
15936;SDS011;9163;48.818;8.976;2023-07-08T13:02:38;3.10;;;2.50;;
15936;SDS011;9163;48.818;8.976;2023-07-08T13:05:06;4.07;;;2.60;;
15936;SDS011;9163;48.818;8.976;2023-07-08T13:07:35;3.35;;;2.60;;
15936;SDS011;9163;48.818;8.976;2023-07-08T13:10:04;4.28;;;2.55;;
15936;SDS011;9163;48.818;8.976;2023-07-08T13:12:34;3.83;;;2.25;;
15936;SDS011;9163;48.818;8.976;2023-07-08T13:15:05;3.05;;;2.28;;
15936;SDS011;9163;48.818;8.976;2023-07-08T13:17:41;3.83;;;2.38;;
15936;SDS011;9163;48.818;8.976;2023-07-08T13:20:09;4.47;;;3.03;;
15936;SDS011;9163;48.818;8.976;2023-07-08T13:22:41;3.00;;;2.22;;
15936;SDS011;9163;48.818;8.976;2023-07-08T13:25:12;3.95;;;2.60;;
15936;SDS011;9163;48.818;8.976;2023-07-08T13:27:42;3.78;;;2.33;;
15936;SDS011;9163;48.818;8.976;2023-07-08T13:30:20;3.72;;;2.40;;
15936;SDS011;9163;48.818;8.976;2023-07-08T13:32:53;2.95;;;2.30;;
15936;SDS011;9163;48.818;8.976;2023-07-08T13:35:21;3.90;;;2.30;;
15936;SDS011;9163;48.818;8.976;2023-07-08T13:37:49;3.10;;;2.60;;
15936;SDS011;9163;48.818;8.976;2023-07-08T13:40:16;4.20;;;2.40;;
15936;SDS011;9163;48.818;8.976;2023-07-08T13:42:48;5.22;;;2.47;;
15936;SDS011;9163;48.818;8.976;2023-07-08T13:45:17;4.85;;;2.50;;
15936;SDS011;9163;48.818;8.976;2023-07-08T13:47:58;3.47;;;2.50;;
15936;SDS011;9163;48.818;8.976;2023-07-08T13:50:38;4.57;;;2.70;;
15936;SDS011;9163;48.818;8.976;2023-07-08T13:53:18;3.28;;;2.20;;
15936;SDS011;9163;48.818;8.976;2023-07-08T13:55:55;2.92;;;1.92;;
15936;SDS011;9163;48.818;8.976;2023-07-08T13:58:26;3.63;;;2.60;;
15936;SDS011;9163;48.818;8.976;2023-07-08T14:00:55;3.72;;;2.53;;
15936;SDS011;9163;48.818;8.976;2023-07-08T14:03:25;2.65;;;2.20;;
15936;SDS011;9163;48.818;8.976;2023-07-08T14:05:52;3.85;;;2.30;;
15936;SDS011;9163;48.818;8.976;2023-07-08T14:08:20;2.83;;;2.50;;
15936;SDS011;9163;48.818;8.976;2023-07-08T14:10:48;2.83;;;2.30;;
15936;SDS011;9163;48.818;8.976;2023-07-08T14:13:15;5.97;;;4.15;;
15936;SDS011;9163;48.818;8.976;2023-07-08T14:15:43;3.83;;;3.03;;
15936;SDS011;9163;48.818;8.976;2023-07-08T14:18:12;3.38;;;2.42;;
15936;SDS011;9163;48.818;8.976;2023-07-08T14:20:41;3.45;;;2.40;;
15936;SDS011;9163;48.818;8.976;2023-07-08T14:23:09;4.88;;;2.55;;
15936;SDS011;9163;48.818;8.976;2023-07-08T14:28:11;3.72;;;2.60;;
15936;SDS011;9163;48.818;8.976;2023-07-08T14:30:39;3.47;;;2.58;;
15936;SDS011;9163;48.818;8.976;2023-07-08T14:33:09;4.85;;;2.45;;
15936;SDS011;9163;48.818;8.976;2023-07-08T14:35:38;4.53;;;2.53;;
15936;SDS011;9163;48.818;8.976;2023-07-08T14:38:09;3.45;;;2.50;;
15936;SDS011;9163;48.818;8.976;2023-07-08T14:40:37;3.97;;;2.75;;
15936;SDS011;9163;48.818;8.976;2023-07-08T14:43:07;4.22;;;2.80;;
15936;SDS011;9163;48.818;8.976;2023-07-08T14:45:41;4.15;;;2.40;;
15936;SDS011;9163;48.818;8.976;2023-07-08T14:48:10;4.07;;;2.90;;
15936;SDS011;9163;48.818;8.976;2023-07-08T14:50:39;3.00;;;2.58;;
15936;SDS011;9163;48.818;8.976;2023-07-08T14:53:06;3.90;;;2.47;;
15936;SDS011;9163;48.818;8.976;2023-07-08T14:55:35;4.25;;;2.40;;
15936;SDS011;9163;48.818;8.976;2023-07-08T14:58:03;3.97;;;2.35;;
15936;SDS011;9163;48.818;8.976;2023-07-08T15:00:31;3.42;;;2.30;;
15936;SDS011;9163;48.818;8.976;2023-07-08T15:02:58;2.85;;;2.22;;
15936;SDS011;9163;48.818;8.976;2023-07-08T15:05:26;5.00;;;2.67;;
15936;SDS011;9163;48.818;8.976;2023-07-08T15:07:55;4.55;;;2.75;;
15936;SDS011;9163;48.818;8.976;2023-07-08T15:10:24;3.47;;;2.40;;
15936;SDS011;9163;48.818;8.976;2023-07-08T15:12:54;4.00;;;2.50;;
15936;SDS011;9163;48.818;8.976;2023-07-08T15:15:23;5.60;;;2.90;;
15936;SDS011;9163;48.818;8.976;2023-07-08T15:17:54;7.63;;;2.75;;
15936;SDS011;9163;48.818;8.976;2023-07-08T15:20:22;3.88;;;2.40;;
15936;SDS011;9163;48.818;8.976;2023-07-08T15:22:49;2.65;;;2.33;;
15936;SDS011;9163;48.818;8.976;2023-07-08T15:25:17;4.85;;;3.42;;